< < Back
Terminal Aerodrome Forecast


Current Version              Previous Versions:   1  2  3  4  5  6  7  8  9  

Terminal Aerodrome Forecast

540
FTUS42 KFFC 010347 AAB
TAFCSG
TAF AMD
KCSG 010347Z 0104/0124 00000KT P6SM SCT100
     FM011400 15004KT P6SM FEW040
     FM011600 16006KT P6SM SCT050 PROB30 0120/0124 6SM TSRA
      BKN040CB=

Latest METAR

453
SAUS70 KWBC 010300 RRK
MTRCSG
METAR KCSG 010251Z AUTO 28004KT 10SM FEW085 27/18 A2993 RMK AO2 SLP128
T02720178 53018


USA.gov is the U.S. government's official web portal to all federal, state and local government web resources and services.